Летающим высоко и низко: ПОГОДА В АЭРОПОРТАХ

Datasource: http://meteocentre.com/cgi-bin/get_taf?STN=UUEE
    за последний срок по а/п  (сейчас 0:36 мск)
UUEE на Метеоцентре                GFS-прогноз по UUEE                   Погода сейчас
UUEE: TAF UUEE 230200Z 2303/2403 02004MPS 9999 BKN015 TX29/2312Z TN16/2303Z

BECMG 2307/2311 17005MPS=

TAF UUEE 230200Z 2303/2403 02004MPS 9999 BKN015 TX29/2312Z TN16/2303Z

BECMG 2307/2311 17005MPS=

TAF UUEE 230200Z 2303/2403 02004MPS 9999 BKN015 TX29/2312Z

TN16/2303Z

BECMG 2307/2311 17005MPS=

Авиапрогноз Москва (Шереметьево), составлен 23 июня 6:00 мск:
с 6:00 (23 июня) до 6:00 (24 июня) ветер 20° (ССВ) 4 м/c; видимость > 10 км; облачн. значительная 450 м; [TX29/2312Z] [TN16/2303Z]
Постеп. изменение: с 10:00 (23 июня) до 14:00 (23 июня) ветер 170° (Ю) 5 м/c;

Красным подкрашены опасные явления погоды, синим - предпосылки к ним, читайте комментарии. На данный момент охвачены Россия и Украина. Погода обновляется примерно раз в полчаса, вскоре после наблюдений. Прогноз обновляется примерно раз в час. Для обзорности глядите также фактическую погоду вокруг..., по трехчасовым срокам. Это тестовая версия, любые замечания приветствуются
GeoFAQ - гео-информационные технологии Летающие Болотоходцы

GeoFAQ: по просьбе сообщества Летающие болотоходцы
по рекомендациям Метеоцентра